sensor_id;sensor_type;location;lat;lon;timestamp;pressure;altitude;pressure_sealevel;temperature;humidity
65131;BME280;51709;54.912;8.316;2022-09-02T00:00:41;102229.91;;;14.91;57.81
65131;BME280;51709;54.912;8.316;2022-09-02T00:06:02;102226.59;;;14.83;57.94
65131;BME280;51709;54.912;8.316;2022-09-02T00:11:25;102232.75;;;14.74;58.23
65131;BME280;51709;54.912;8.316;2022-09-02T00:16:49;102229.41;;;14.67;58.32
65131;BME280;51709;54.912;8.316;2022-09-02T00:22:13;102232.09;;;14.61;58.47
65131;BME280;51709;54.912;8.316;2022-09-02T00:27:33;102229.53;;;14.58;58.63
65131;BME280;51709;54.912;8.316;2022-09-02T00:32:54;102223.50;;;14.59;58.61
65131;BME280;51709;54.912;8.316;2022-09-02T00:38:15;102215.75;;;14.59;58.49
65131;BME280;51709;54.912;8.316;2022-09-02T00:43:44;102216.66;;;14.56;58.85
65131;BME280;51709;54.912;8.316;2022-09-02T00:49:24;102227.00;;;14.56;58.69
65131;BME280;51709;54.912;8.316;2022-09-02T00:54:52;102217.59;;;14.51;58.89
65131;BME280;51709;54.912;8.316;2022-09-02T01:00:17;102210.78;;;14.46;59.05
65131;BME280;51709;54.912;8.316;2022-09-02T01:05:44;102201.34;;;14.42;59.35
65131;BME280;51709;54.912;8.316;2022-09-02T01:11:05;102203.13;;;14.39;59.55
65131;BME280;51709;54.912;8.316;2022-09-02T01:16:32;102198.91;;;14.33;59.33
65131;BME280;51709;54.912;8.316;2022-09-02T01:21:55;102186.91;;;14.29;59.39
65131;BME280;51709;54.912;8.316;2022-09-02T01:27:19;102190.41;;;14.26;59.62
65131;BME280;51709;54.912;8.316;2022-09-02T01:32:40;102192.16;;;14.24;59.85
65131;BME280;51709;54.912;8.316;2022-09-02T01:38:01;102187.94;;;14.20;60.16
65131;BME280;51709;54.912;8.316;2022-09-02T01:43:24;102187.06;;;14.21;60.30
65131;BME280;51709;54.912;8.316;2022-09-02T01:48:46;102188.00;;;14.14;60.49
65131;BME280;51709;54.912;8.316;2022-09-02T01:54:07;102184.72;;;14.04;61.10
65131;BME280;51709;54.912;8.316;2022-09-02T01:59:28;102179.59;;;13.99;61.47
65131;BME280;51709;54.912;8.316;2022-09-02T02:04:49;102181.41;;;13.94;61.75
65131;BME280;51709;54.912;8.316;2022-09-02T02:10:12;102173.72;;;13.90;62.07
65131;BME280;51709;54.912;8.316;2022-09-02T02:15:37;102170.34;;;13.84;62.15
65131;BME280;51709;54.912;8.316;2022-09-02T02:20:58;102173.84;;;13.80;62.41
65131;BME280;51709;54.912;8.316;2022-09-02T02:26:19;102175.66;;;13.74;62.65
65131;BME280;51709;54.912;8.316;2022-09-02T02:31:41;102180.91;;;13.66;62.80
65131;BME280;51709;54.912;8.316;2022-09-02T02:37:04;102163.78;;;13.60;62.96
65131;BME280;51709;54.912;8.316;2022-09-02T02:42:37;102167.25;;;13.56;62.78
65131;BME280;51709;54.912;8.316;2022-09-02T02:47:58;102170.72;;;13.53;63.05
65131;BME280;51709;54.912;8.316;2022-09-02T02:53:19;102163.06;;;13.49;63.17
65131;BME280;51709;54.912;8.316;2022-09-02T02:58:40;102165.63;;;13.49;63.05
65131;BME280;51709;54.912;8.316;2022-09-02T03:04:02;102155.31;;;13.47;63.18
65131;BME280;51709;54.912;8.316;2022-09-02T03:09:23;102152.78;;;13.44;63.34
65131;BME280;51709;54.912;8.316;2022-09-02T03:14:44;102151.94;;;13.42;63.33
65131;BME280;51709;54.912;8.316;2022-09-02T03:20:07;102148.53;;;13.40;63.54
65131;BME280;51709;54.912;8.316;2022-09-02T03:25:34;102139.09;;;13.37;63.61
65131;BME280;51709;54.912;8.316;2022-09-02T03:31:03;102150.28;;;13.36;63.62
65131;BME280;51709;54.912;8.316;2022-09-02T03:36:37;102142.53;;;13.36;63.89
65131;BME280;51709;54.912;8.316;2022-09-02T03:42:01;102149.38;;;13.39;63.86
65131;BME280;51709;54.912;8.316;2022-09-02T03:47:25;102143.34;;;13.41;63.89
65131;BME280;51709;54.912;8.316;2022-09-02T03:52:51;102144.19;;;13.45;63.94
65131;BME280;51709;54.912;8.316;2022-09-02T03:58:13;102133.88;;;13.45;64.03
65131;BME280;51709;54.912;8.316;2022-09-02T04:03:36;102128.69;;;13.47;64.02
65131;BME280;51709;54.912;8.316;2022-09-02T04:08:56;102132.09;;;13.47;64.17
65131;BME280;51709;54.912;8.316;2022-09-02T04:14:18;102128.66;;;13.48;64.32
65131;BME280;51709;54.912;8.316;2022-09-02T04:19:40;102125.22;;;13.49;64.37
65131;BME280;51709;54.912;8.316;2022-09-02T04:25:01;102120.91;;;13.50;64.37
65131;BME280;51709;54.912;8.316;2022-09-02T04:30:22;102130.38;;;13.51;64.32
65131;BME280;51709;54.912;8.316;2022-09-02T04:35:46;102122.59;;;13.52;64.40
65131;BME280;51709;54.912;8.316;2022-09-02T04:41:16;102119.13;;;13.55;64.37
65131;BME280;51709;54.912;8.316;2022-09-02T04:46:38;102119.13;;;13.56;64.38
65131;BME280;51709;54.912;8.316;2022-09-02T04:52:02;102113.06;;;13.59;64.34
65131;BME280;51709;54.912;8.316;2022-09-02T04:57:24;102124.16;;;13.64;64.14
65131;BME280;51709;54.912;8.316;2022-09-02T05:02:46;102126.69;;;13.67;64.04
65131;BME280;51709;54.912;8.316;2022-09-02T05:08:08;102134.41;;;13.70;64.13
65131;BME280;51709;54.912;8.316;2022-09-02T05:13:30;102132.63;;;13.76;64.21
65131;BME280;51709;54.912;8.316;2022-09-02T05:18:52;102130.78;;;13.82;64.19
65131;BME280;51709;54.912;8.316;2022-09-02T05:24:16;102131.56;;;13.89;64.27
65131;BME280;51709;54.912;8.316;2022-09-02T05:29:37;102128.00;;;13.98;64.18
65131;BME280;51709;54.912;8.316;2022-09-02T05:35:00;102134.78;;;14.03;64.52
65131;BME280;51709;54.912;8.316;2022-09-02T05:40:22;102139.84;;;14.11;64.47
65131;BME280;51709;54.912;8.316;2022-09-02T05:45:44;102141.44;;;14.20;64.63
65131;BME280;51709;54.912;8.316;2022-09-02T05:51:07;102146.50;;;14.26;64.51
65131;BME280;51709;54.912;8.316;2022-09-02T05:56:28;102147.22;;;14.36;64.43
65131;BME280;51709;54.912;8.316;2022-09-02T06:01:50;102141.06;;;14.43;64.38
65131;BME280;51709;54.912;8.316;2022-09-02T06:07:12;102138.41;;;14.49;64.38
65131;BME280;51709;54.912;8.316;2022-09-02T06:12:36;102145.88;;;14.65;64.13
65131;BME280;51709;54.912;8.316;2022-09-02T06:18:02;102137.06;;;14.80;64.10
65131;BME280;51709;54.912;8.316;2022-09-02T06:23:25;102148.81;;;14.97;63.72
65131;BME280;51709;54.912;8.316;2022-09-02T06:28:46;102140.94;;;15.03;63.93
65131;BME280;51709;54.912;8.316;2022-09-02T06:34:09;102152.78;;;15.15;63.92
65131;BME280;51709;54.912;8.316;2022-09-02T06:39:34;102157.75;;;15.24;63.77
65131;BME280;51709;54.912;8.316;2022-09-02T06:44:57;102154.03;;;15.39;63.77
65131;BME280;51709;54.912;8.316;2022-09-02T06:50:19;102148.47;;;15.57;63.54
65131;BME280;51709;54.912;8.316;2022-09-02T06:55:42;102144.53;;;15.80;63.25
65131;BME280;51709;54.912;8.316;2022-09-02T07:01:03;102147.75;;;15.93;63.06
65131;BME280;51709;54.912;8.316;2022-09-02T07:06:24;102143.91;;;16.10;62.79
65131;BME280;51709;54.912;8.316;2022-09-02T07:11:49;102145.16;;;16.29;62.58
65131;BME280;51709;54.912;8.316;2022-09-02T07:17:13;102144.84;;;16.43;62.21
65131;BME280;51709;54.912;8.316;2022-09-02T07:22:45;102151.00;;;16.74;61.76
65131;BME280;51709;54.912;8.316;2022-09-02T07:28:10;102138.31;;;16.98;60.92
65131;BME280;51709;54.912;8.316;2022-09-02T07:33:32;102150.50;;;17.25;60.41
65131;BME280;51709;54.912;8.316;2022-09-02T07:38:53;102146.22;;;17.54;59.55
65131;BME280;51709;54.912;8.316;2022-09-02T07:44:17;102140.59;;;17.68;59.12
65131;BME280;51709;54.912;8.316;2022-09-02T07:49:39;102152.50;;;18.06;58.30
65131;BME280;51709;54.912;8.316;2022-09-02T07:55:22;102144.56;;;18.37;57.52
65131;BME280;51709;54.912;8.316;2022-09-02T08:00:43;102154.41;;;18.54;57.10
65131;BME280;51709;54.912;8.316;2022-09-02T08:06:05;102137.41;;;18.94;55.99
65131;BME280;51709;54.912;8.316;2022-09-02T08:11:26;102145.38;;;19.39;54.74
65131;BME280;51709;54.912;8.316;2022-09-02T08:16:47;102145.03;;;19.70;53.81
65131;BME280;51709;54.912;8.316;2022-09-02T08:22:07;102145.28;;;20.10;52.54
65131;BME280;51709;54.912;8.316;2022-09-02T08:27:28;102151.22;;;20.35;51.66
65131;BME280;51709;54.912;8.316;2022-09-02T08:32:48;102146.13;;;20.52;50.97
65131;BME280;51709;54.912;8.316;2022-09-02T08:38:09;102146.16;;;20.93;49.74
65131;BME280;51709;54.912;8.316;2022-09-02T08:43:34;102139.16;;;21.34;48.37
65131;BME280;51709;54.912;8.316;2022-09-02T08:49:17;102132.41;;;21.85;46.76
65131;BME280;51709;54.912;8.316;2022-09-02T08:54:46;102140.44;;;22.17;45.84
65131;BME280;51709;54.912;8.316;2022-09-02T09:00:09;102135.22;;;22.70;44.31
65131;BME280;51709;54.912;8.316;2022-09-02T09:05:38;102138.75;;;23.03;43.13
65131;BME280;51709;54.912;8.316;2022-09-02T09:11:09;102128.66;;;23.61;41.50
65131;BME280;51709;54.912;8.316;2022-09-02T09:16:55;102123.28;;;24.25;40.14
65131;BME280;51709;54.912;8.316;2022-09-02T09:22:20;102116.84;;;24.75;38.86
65131;BME280;51709;54.912;8.316;2022-09-02T09:27:42;102118.88;;;24.99;38.34
65131;BME280;51709;54.912;8.316;2022-09-02T09:33:15;102115.84;;;25.05;37.85
65131;BME280;51709;54.912;8.316;2022-09-02T09:38:40;102105.03;;;25.24;37.26
65131;BME280;51709;54.912;8.316;2022-09-02T09:44:00;102107.34;;;25.71;36.11
65131;BME280;51709;54.912;8.316;2022-09-02T09:49:25;102092.53;;;26.10;35.01
65131;BME280;51709;54.912;8.316;2022-09-02T09:54:46;102094.13;;;26.26;35.03
65131;BME280;51709;54.912;8.316;2022-09-02T10:00:35;102090.00;;;26.60;34.10
65131;BME280;51709;54.912;8.316;2022-09-02T10:05:58;102097.16;;;27.59;32.24
65131;BME280;51709;54.912;8.316;2022-09-02T10:11:25;102087.66;;;28.27;31.35
65131;BME280;51709;54.912;8.316;2022-09-02T10:28:30;102083.47;;;32.87;24.63
65131;BME280;51709;54.912;8.316;2022-09-02T10:34:09;102070.59;;;31.30;26.38
65131;BME280;51709;54.912;8.316;2022-09-02T10:40:12;102060.28;;;31.17;26.42
65131;BME280;51709;54.912;8.316;2022-09-02T10:45:40;102056.69;;;30.77;26.71
65131;BME280;51709;54.912;8.316;2022-09-02T10:51:12;102066.00;;;30.62;26.91
65131;BME280;51709;54.912;8.316;2022-09-02T10:56:54;102047.50;;;30.91;26.00
65131;BME280;51709;54.912;8.316;2022-09-02T11:02:24;102049.22;;;31.61;25.41
65131;BME280;51709;54.912;8.316;2022-09-02T11:13:57;102040.75;;;34.14;22.45
65131;BME280;51709;54.912;8.316;2022-09-02T11:19:45;102029.75;;;34.60;21.83
65131;BME280;51709;54.912;8.316;2022-09-02T11:25:16;102030.94;;;34.22;22.38
65131;BME280;51709;54.912;8.316;2022-09-02T11:30:52;102025.78;;;34.21;21.89
65131;BME280;51709;54.912;8.316;2022-09-02T11:36:16;102010.84;;;34.36;21.90
65131;BME280;51709;54.912;8.316;2022-09-02T11:52:58;101988.75;;;34.52;21.26
65131;BME280;51709;54.912;8.316;2022-09-02T11:58:41;101989.97;;;34.75;20.55
65131;BME280;51709;54.912;8.316;2022-09-02T12:09:54;101975.50;;;34.26;20.84
65131;BME280;51709;54.912;8.316;2022-09-02T12:15:17;101973.06;;;33.90;20.84
65131;BME280;51709;54.912;8.316;2022-09-02T12:26:05;101938.97;;;34.02;20.85
65131;BME280;51709;54.912;8.316;2022-09-02T12:31:43;101941.22;;;33.88;20.56
65131;BME280;51709;54.912;8.316;2022-09-02T12:37:05;101942.69;;;33.83;20.76
65131;BME280;51709;54.912;8.316;2022-09-02T12:42:30;101941.25;;;33.62;20.61
65131;BME280;51709;54.912;8.316;2022-09-02T12:48:00;101943.09;;;33.61;20.58
65131;BME280;51709;54.912;8.316;2022-09-02T12:53:40;101926.41;;;33.51;20.93
65131;BME280;51709;54.912;8.316;2022-09-02T12:59:03;101924.09;;;33.30;20.90
65131;BME280;51709;54.912;8.316;2022-09-02T13:04:35;101925.00;;;32.94;20.88
65131;BME280;51709;54.912;8.316;2022-09-02T13:15:52;101927.50;;;32.13;21.83
65131;BME280;51709;54.912;8.316;2022-09-02T13:32:32;101901.63;;;32.43;21.29
65131;BME280;51709;54.912;8.316;2022-09-02T13:37:57;101906.38;;;31.94;22.04
65131;BME280;51709;54.912;8.316;2022-09-02T13:43:23;101890.31;;;31.48;22.24
65131;BME280;51709;54.912;8.316;2022-09-02T13:48:46;101899.81;;;31.50;22.82
65131;BME280;51709;54.912;8.316;2022-09-02T13:54:06;101882.97;;;31.32;22.74
65131;BME280;51709;54.912;8.316;2022-09-02T13:59:48;101877.19;;;30.69;23.50
65131;BME280;51709;54.912;8.316;2022-09-02T14:05:19;101877.19;;;30.79;23.23
65131;BME280;51709;54.912;8.316;2022-09-02T14:10:42;101869.63;;;30.84;23.50
65131;BME280;51709;54.912;8.316;2022-09-02T14:16:27;101850.66;;;30.40;24.34
65131;BME280;51709;54.912;8.316;2022-09-02T14:21:54;101853.03;;;30.53;24.31
65131;BME280;51709;54.912;8.316;2022-09-02T14:27:17;101853.81;;;29.94;24.91
65131;BME280;51709;54.912;8.316;2022-09-02T14:32:38;101856.28;;;29.55;25.60
65131;BME280;51709;54.912;8.316;2022-09-02T14:37:58;101849.44;;;29.31;25.43
65131;BME280;51709;54.912;8.316;2022-09-02T14:43:19;101850.63;;;28.96;25.89
65131;BME280;51709;54.912;8.316;2022-09-02T14:48:40;101843.84;;;28.50;26.48
65131;BME280;51709;54.912;8.316;2022-09-02T14:54:01;101838.16;;;28.33;27.18
65131;BME280;51709;54.912;8.316;2022-09-02T14:59:22;101847.16;;;28.30;27.11
65131;BME280;51709;54.912;8.316;2022-09-02T15:04:42;101838.56;;;27.94;27.29
65131;BME280;51709;54.912;8.316;2022-09-02T15:10:04;101843.41;;;27.66;27.98
65131;BME280;51709;54.912;8.316;2022-09-02T15:15:28;101842.44;;;27.90;27.58
65131;BME280;51709;54.912;8.316;2022-09-02T15:20:50;101838.94;;;27.56;27.68
65131;BME280;51709;54.912;8.316;2022-09-02T15:26:11;101844.00;;;27.70;27.77
65131;BME280;51709;54.912;8.316;2022-09-02T15:31:32;101836.97;;;27.23;28.58
65131;BME280;51709;54.912;8.316;2022-09-02T15:36:54;101828.34;;;27.21;28.46
65131;BME280;51709;54.912;8.316;2022-09-02T15:42:15;101832.53;;;27.13;28.50
65131;BME280;51709;54.912;8.316;2022-09-02T15:47:37;101841.06;;;27.16;28.53
65131;BME280;51709;54.912;8.316;2022-09-02T15:52:58;101834.84;;;28.20;27.21
65131;BME280;51709;54.912;8.316;2022-09-02T15:58:19;101832.47;;;29.03;25.78
65131;BME280;51709;54.912;8.316;2022-09-02T16:03:39;101824.16;;;28.21;26.96
65131;BME280;51709;54.912;8.316;2022-09-02T16:09:04;101811.84;;;27.76;27.52
65131;BME280;51709;54.912;8.316;2022-09-02T16:14:24;101806.72;;;27.63;27.83
65131;BME280;51709;54.912;8.316;2022-09-02T16:19:45;101810.84;;;27.09;28.51
65131;BME280;51709;54.912;8.316;2022-09-02T16:25:06;101811.53;;;26.88;28.47
65131;BME280;51709;54.912;8.316;2022-09-02T16:30:27;101797.19;;;26.68;28.86
65131;BME280;51709;54.912;8.316;2022-09-02T16:35:49;101802.47;;;26.44;29.49
65131;BME280;51709;54.912;8.316;2022-09-02T16:46:50;101785.28;;;25.90;30.05
65131;BME280;51709;54.912;8.316;2022-09-02T16:52:12;101786.38;;;25.87;30.42
65131;BME280;51709;54.912;8.316;2022-09-02T16:57:33;101773.44;;;25.71;30.84
65131;BME280;51709;54.912;8.316;2022-09-02T17:02:54;101760.56;;;25.16;31.88
65131;BME280;51709;54.912;8.316;2022-09-02T17:08:14;101763.16;;;24.90;32.31
65131;BME280;51709;54.912;8.316;2022-09-02T17:14:08;101751.31;;;24.57;33.08
65131;BME280;51709;54.912;8.316;2022-09-02T17:19:29;101763.25;;;24.08;33.90
65131;BME280;51709;54.912;8.316;2022-09-02T17:24:51;101762.06;;;23.42;35.14
65131;BME280;51709;54.912;8.316;2022-09-02T17:30:14;101762.50;;;23.05;35.47
65131;BME280;51709;54.912;8.316;2022-09-02T17:35:35;101765.88;;;22.76;36.13
65131;BME280;51709;54.912;8.316;2022-09-02T17:40:56;101765.34;;;22.39;36.70
65131;BME280;51709;54.912;8.316;2022-09-02T17:46:34;101764.19;;;21.97;37.21
65131;BME280;51709;54.912;8.316;2022-09-02T17:51:55;101768.22;;;21.70;37.61
65131;BME280;51709;54.912;8.316;2022-09-02T17:57:36;101753.47;;;21.18;38.89
65131;BME280;51709;54.912;8.316;2022-09-02T18:14:26;101771.50;;;20.14;40.84
65131;BME280;51709;54.912;8.316;2022-09-02T18:20:05;101770.50;;;19.79;41.41
65131;BME280;51709;54.912;8.316;2022-09-02T18:25:38;101758.72;;;19.51;41.92
65131;BME280;51709;54.912;8.316;2022-09-02T18:31:26;101772.59;;;19.31;42.39
65131;BME280;51709;54.912;8.316;2022-09-02T18:37:02;101773.31;;;19.14;42.80
65131;BME280;51709;54.912;8.316;2022-09-02T18:53:48;101771.25;;;18.57;44.39
65131;BME280;51709;54.912;8.316;2022-09-02T18:59:12;101777.03;;;18.43;44.73
65131;BME280;51709;54.912;8.316;2022-09-02T19:04:45;101783.47;;;18.32;44.93
65131;BME280;51709;54.912;8.316;2022-09-02T19:10:05;101787.34;;;18.22;45.41
65131;BME280;51709;54.912;8.316;2022-09-02T19:15:28;101792.94;;;18.11;45.73
65131;BME280;51709;54.912;8.316;2022-09-02T19:20:48;101789.78;;;18.03;46.06
65131;BME280;51709;54.912;8.316;2022-09-02T19:26:09;101788.63;;;17.86;46.60
65131;BME280;51709;54.912;8.316;2022-09-02T19:31:30;101782.22;;;17.71;47.24
65131;BME280;51709;54.912;8.316;2022-09-02T19:36:51;101781.88;;;17.57;47.60
65131;BME280;51709;54.912;8.316;2022-09-02T19:42:12;101784.00;;;17.46;48.25
65131;BME280;51709;54.912;8.316;2022-09-02T19:47:34;101781.72;;;17.36;48.57
65131;BME280;51709;54.912;8.316;2022-09-02T19:53:21;101786.38;;;17.27;48.96
65131;BME280;51709;54.912;8.316;2022-09-02T19:58:45;101789.28;;;17.17;49.32
65131;BME280;51709;54.912;8.316;2022-09-02T20:04:05;101791.31;;;17.09;49.80
65131;BME280;51709;54.912;8.316;2022-09-02T20:09:26;101788.97;;;17.01;50.26
65131;BME280;51709;54.912;8.316;2022-09-02T20:14:48;101790.16;;;16.89;50.73
65131;BME280;51709;54.912;8.316;2022-09-02T20:20:20;101795.56;;;16.83;51.23
65131;BME280;51709;54.912;8.316;2022-09-02T20:26:06;101791.44;;;16.76;51.78
65131;BME280;51709;54.912;8.316;2022-09-02T20:38:14;101788.69;;;16.54;52.60
65131;BME280;51709;54.912;8.316;2022-09-02T20:49:06;101788.50;;;16.31;53.45
65131;BME280;51709;54.912;8.316;2022-09-02T20:55:13;101788.69;;;16.25;53.91
65131;BME280;51709;54.912;8.316;2022-09-02T21:00:36;101789.75;;;16.18;54.35
65131;BME280;51709;54.912;8.316;2022-09-02T21:05:57;101791.66;;;16.11;54.66
65131;BME280;51709;54.912;8.316;2022-09-02T21:11:21;101791.81;;;16.07;55.05
65131;BME280;51709;54.912;8.316;2022-09-02T21:16:48;101791.13;;;16.00;55.56
65131;BME280;51709;54.912;8.316;2022-09-02T21:22:18;101793.00;;;15.95;56.04
65131;BME280;51709;54.912;8.316;2022-09-02T21:27:49;101790.50;;;15.92;56.53
65131;BME280;51709;54.912;8.316;2022-09-02T21:33:12;101784.66;;;15.85;56.87
65131;BME280;51709;54.912;8.316;2022-09-02T21:38:41;101792.66;;;15.76;57.45
65131;BME280;51709;54.912;8.316;2022-09-02T21:44:22;101794.50;;;15.70;58.17
65131;BME280;51709;54.912;8.316;2022-09-02T22:01:41;101794.94;;;15.55;58.97
65131;BME280;51709;54.912;8.316;2022-09-02T22:07:15;101795.06;;;15.50;58.91
65131;BME280;51709;54.912;8.316;2022-09-02T22:12:44;101791.72;;;15.45;59.02
65131;BME280;51709;54.912;8.316;2022-09-02T22:18:22;101800.44;;;15.41;59.38
65131;BME280;51709;54.912;8.316;2022-09-02T22:23:50;101789.38;;;15.36;59.55
65131;BME280;51709;54.912;8.316;2022-09-02T22:40:59;101810.38;;;15.23;60.42
65131;BME280;51709;54.912;8.316;2022-09-02T22:46:27;101805.34;;;15.17;60.81
65131;BME280;51709;54.912;8.316;2022-09-02T22:52:34;101806.28;;;15.15;60.84
65131;BME280;51709;54.912;8.316;2022-09-02T23:09:46;101805.69;;;15.03;61.42
65131;BME280;51709;54.912;8.316;2022-09-02T23:15:28;101800.59;;;15.00;61.69
65131;BME280;51709;54.912;8.316;2022-09-02T23:26:38;101791.31;;;14.93;61.95
65131;BME280;51709;54.912;8.316;2022-09-02T23:43:23;101783.91;;;14.77;62.42
